Portada
METAR-TAF:

METAR-TAF

Aeroports :

Baldwin_County_Airport

Milledgeville, Geòrgia, Estats Units d'Amèrica

latitud: 33-09-15N, longitud: 083-14-26W, altitud: 117 m

Observació

L'informe es va fer fa 23 minuts, a les 03:55 UTC
Vent calma
Temperatura 6°C
Humitat 100%
Pressió 1024 hPa
Visibilitat: 16.1 km
Cel clar

METAR: KMLJ 210355Z AUTO 00000KT 10SM CLR 06/06 A3025 RMK AO2

Hora: 23:18 (04:18 UTC)


TAF: manca

Observacions i pronòstics meteorològics de més de 4000 aeroports (METAR i TAF).

Les estacions disponibles són els punts grocs i vermells al mapa.

Posi el ratolí al punt desitjat per veure el nom de l'estació.

Feu clic per veure les observacions i els pronòstics meteorològics.

Per canviar el mapa: feu clic els botons verds amb una creu de color negre per apropar; al botó verd amb un guió per allunyar la imatge; o en les fletxes verdes per a mapes adjacents.


METAR-TAF: